Time;durP1;ratioP1;P1;durP2;ratioP2;P2;SDS_P1;SDS_P2;PMS_P1;PMS_P2;Temp;Humidity;BMP_temperature;BMP_pressure;BME280_temperature;BME280_humidity;BME280_pressure;Samples;Min_cycle;Max_cycle;Signal;HPM_P1;HPM_P2
2024/01/29 00:00:24;;;;;;;4.78;2.53;;;;;;;;;;4985674;28;20785;-64
2024/01/29 00:02:50;;;;;;;8.35;3.08;;;;;;;;;;4986411;28;20088;-64
2024/01/29 00:05:16;;;;;;;6.55;2.80;;;;;;;;;;4986406;28;20064;-64
2024/01/29 00:07:42;;;;;;;7.95;3.03;;;;;;;;;;4986186;28;20033;-65
2024/01/29 00:10:08;;;;;;;5.45;2.58;;;;;;;;;;4986093;28;20037;-64
2024/01/29 00:12:34;;;;;;;7.00;3.03;;;;;;;;;;4985864;28;20037;-64
2024/01/29 00:15:01;;;;;;;7.22;2.80;;;;;;;;;;4984143;28;20053;-64
2024/01/29 00:17:27;;;;;;;7.82;3.60;;;;;;;;;;4984952;28;20107;-64
2024/01/29 00:19:53;;;;;;;6.95;3.10;;;;;;;;;;4985861;28;20035;-64
2024/01/29 00:22:19;;;;;;;6.80;2.72;;;;;;;;;;4984368;28;20042;-64
2024/01/29 00:24:45;;;;;;;5.75;2.20;;;;;;;;;;4983404;28;20038;-65
2024/01/29 00:27:11;;;;;;;6.68;2.75;;;;;;;;;;4982709;28;20080;-64
2024/01/29 00:29:37;;;;;;;5.80;2.53;;;;;;;;;;4976816;28;20045;-64
2024/01/29 00:32:03;;;;;;;6.88;2.35;;;;;;;;;;4976286;28;20540;-64
2024/01/29 00:34:29;;;;;;;5.63;2.60;;;;;;;;;;4975679;28;20569;-64
2024/01/29 00:36:55;;;;;;;6.35;2.50;;;;;;;;;;4976453;28;20038;-64
2024/01/29 00:39:21;;;;;;;6.63;2.67;;;;;;;;;;4975410;28;20042;-64
2024/01/29 00:41:47;;;;;;;8.00;3.00;;;;;;;;;;4973375;28;20056;-64
2024/01/29 00:44:14;;;;;;;6.10;2.55;;;;;;;;;;4978453;28;20038;-64
2024/01/29 00:46:40;;;;;;;6.78;2.50;;;;;;;;;;4977358;28;20041;-64
2024/01/29 00:49:06;;;;;;;6.65;2.78;;;;;;;;;;4977477;28;20034;-64
2024/01/29 00:51:32;;;;;;;6.68;2.80;;;;;;;;;;4977868;28;20038;-64
2024/01/29 00:53:58;;;;;;;5.40;2.80;;;;;;;;;;4978962;28;20461;-64
2024/01/29 00:56:24;;;;;;;6.03;2.78;;;;;;;;;;4977965;28;20457;-64
2024/01/29 00:58:50;;;;;;;5.85;2.50;;;;;;;;;;4977423;28;21370;-64
2024/01/29 01:01:17;;;;;;;6.75;3.00;;;;;;;;;;4976446;28;20497;-64
2024/01/29 01:03:43;;;;;;;7.10;3.10;;;;;;;;;;4976795;28;20682;-64
2024/01/29 01:06:10;;;;;;;6.03;2.88;;;;;;;;;;4977865;28;20030;-64
2024/01/29 01:08:36;;;;;;;6.60;2.80;;;;;;;;;;4976648;28;20038;-64
2024/01/29 01:11:03;;;;;;;5.30;2.33;;;;;;;;;;4975232;28;20038;-64
2024/01/29 01:13:29;;;;;;;6.35;3.08;;;;;;;;;;4976244;28;20729;-64
2024/01/29 01:15:55;;;;;;;6.22;2.72;;;;;;;;;;4978036;28;20034;-64
2024/01/29 01:18:21;;;;;;;6.90;2.83;;;;;;;;;;4975315;28;20049;-64
2024/01/29 01:20:47;;;;;;;5.53;2.55;;;;;;;;;;4976409;28;20498;-64
2024/01/29 01:23:13;;;;;;;9.57;3.15;;;;;;;;;;4975644;28;20034;-64
2024/01/29 01:25:39;;;;;;;6.68;3.10;;;;;;;;;;4976268;28;20075;-64
2024/01/29 01:28:07;;;;;;;6.50;2.90;;;;;;;;;;4977417;28;20042;-64
2024/01/29 01:30:33;;;;;;;4.85;2.50;;;;;;;;;;4977642;28;20036;-64
2024/01/29 01:32:59;;;;;;;7.28;3.13;;;;;;;;;;4978594;28;20052;-64
2024/01/29 01:35:25;;;;;;;7.50;2.78;;;;;;;;;;4977273;28;20128;-64
2024/01/29 01:37:51;;;;;;;5.97;2.53;;;;;;;;;;4979462;28;20125;-64
2024/01/29 01:40:18;;;;;;;6.05;2.50;;;;;;;;;;4977001;28;20062;-64
2024/01/29 01:42:44;;;;;;;7.82;3.47;;;;;;;;;;4963317;28;20081;-64
2024/01/29 01:45:12;;;;;;;8.60;2.70;;;;;;;;;;4978268;28;20097;-64
2024/01/29 01:47:38;;;;;;;6.75;3.00;;;;;;;;;;4978105;28;20037;-64
2024/01/29 01:50:07;;;;;;;7.28;3.13;;;;;;;;;;4977209;28;20095;-64
2024/01/29 01:52:34;;;;;;;8.20;2.80;;;;;;;;;;4976716;28;20084;-64
2024/01/29 01:55:00;;;;;;;6.45;2.95;;;;;;;;;;4977993;28;20030;-64
2024/01/29 01:57:27;;;;;;;6.47;3.17;;;;;;;;;;4977244;28;20034;-64
2024/01/29 01:59:53;;;;;;;6.97;3.30;;;;;;;;;;4978184;28;22032;-64
2024/01/29 02:02:20;;;;;;;6.10;2.88;;;;;;;;;;4976649;28;20038;-64
2024/01/29 02:04:46;;;;;;;8.00;3.30;;;;;;;;;;4977780;28;20536;-64
2024/01/29 02:07:12;;;;;;;8.85;3.05;;;;;;;;;;4977406;28;20061;-64
2024/01/29 02:09:39;;;;;;;5.32;2.72;;;;;;;;;;4976397;28;20040;-64
2024/01/29 02:12:05;;;;;;;6.90;2.55;;;;;;;;;;4976796;28;20064;-64
2024/01/29 02:14:31;;;;;;;7.18;2.72;;;;;;;;;;4976960;28;20039;-64
2024/01/29 02:16:57;;;;;;;6.40;2.80;;;;;;;;;;4977623;28;20113;-64
2024/01/29 02:19:23;;;;;;;6.50;3.00;;;;;;;;;;4977423;28;20112;-64
2024/01/29 02:21:50;;;;;;;6.63;3.20;;;;;;;;;;4976208;28;20038;-64
2024/01/29 02:24:16;;;;;;;7.97;3.45;;;;;;;;;;4977478;28;20039;-64
2024/01/29 02:26:46;;;;;;;5.93;2.88;;;;;;;;;;4976299;28;20031;-64
2024/01/29 02:29:12;;;;;;;7.15;3.00;;;;;;;;;;4958008;28;20030;-64
2024/01/29 02:31:38;;;;;;;6.57;3.10;;;;;;;;;;4956648;28;21614;-64
2024/01/29 02:34:04;;;;;;;8.18;3.15;;;;;;;;;;4957372;28;20490;-64
2024/01/29 02:36:30;;;;;;;6.07;3.13;;;;;;;;;;4957177;28;20082;-64
2024/01/29 02:38:56;;;;;;;11.25;3.33;;;;;;;;;;4955941;28;20030;-64
2024/01/29 02:41:22;;;;;;;6.50;2.78;;;;;;;;;;4955681;28;20038;-64
2024/01/29 02:43:48;;;;;;;5.57;2.65;;;;;;;;;;4956758;28;20041;-64
2024/01/29 02:46:16;;;;;;;7.40;3.33;;;;;;;;;;4958340;28;20078;-64
2024/01/29 02:48:42;;;;;;;7.13;3.03;;;;;;;;;;4957434;28;20050;-64
2024/01/29 02:51:08;;;;;;;6.18;3.25;;;;;;;;;;4959028;28;20058;-64
2024/01/29 02:53:34;;;;;;;7.40;2.88;;;;;;;;;;4956546;28;20152;-64
2024/01/29 02:56:00;;;;;;;6.97;3.15;;;;;;;;;;4957667;28;20035;-64
2024/01/29 02:58:26;;;;;;;6.07;3.10;;;;;;;;;;4956711;28;20031;-64
2024/01/29 03:00:53;;;;;;;8.63;3.40;;;;;;;;;;4973654;28;20121;-64
2024/01/29 03:03:19;;;;;;;6.72;3.35;;;;;;;;;;4952630;28;20483;-64
2024/01/29 03:05:45;;;;;;;5.55;2.80;;;;;;;;;;4955400;28;20034;-64
2024/01/29 03:08:11;;;;;;;7.38;3.10;;;;;;;;;;4958157;28;20089;-64
2024/01/29 03:10:37;;;;;;;8.40;3.70;;;;;;;;;;4957219;28;20089;-64
2024/01/29 03:13:03;;;;;;;7.13;3.08;;;;;;;;;;4956950;28;20075;-64
2024/01/29 03:15:29;;;;;;;10.23;3.60;;;;;;;;;;4957348;28;20031;-64
2024/01/29 03:17:55;;;;;;;7.18;3.08;;;;;;;;;;4957403;28;20022;-64
2024/01/29 03:20:21;;;;;;;8.13;4.00;;;;;;;;;;4958105;28;20116;-64
2024/01/29 03:22:47;;;;;;;13.10;5.03;;;;;;;;;;4957894;28;21788;-64
2024/01/29 03:25:13;;;;;;;16.95;5.13;;;;;;;;;;4960825;28;20058;-64
2024/01/29 03:27:39;;;;;;;17.15;6.13;;;;;;;;;;4961456;28;20053;-64
2024/01/29 03:30:06;;;;;;;8.57;3.90;;;;;;;;;;4961134;28;20129;-64
2024/01/29 03:32:32;;;;;;;9.48;3.50;;;;;;;;;;4961239;28;20097;-64
2024/01/29 03:34:58;;;;;;;8.15;3.72;;;;;;;;;;4961365;28;20042;-64
2024/01/29 03:37:24;;;;;;;7.30;3.50;;;;;;;;;;4959954;28;20107;-64
2024/01/29 03:39:50;;;;;;;7.90;3.15;;;;;;;;;;4961112;28;20085;-64
2024/01/29 03:42:16;;;;;;;8.82;3.10;;;;;;;;;;4960180;28;20049;-64
2024/01/29 03:44:43;;;;;;;6.38;2.83;;;;;;;;;;4960218;28;20034;-64
2024/01/29 03:47:09;;;;;;;6.70;3.53;;;;;;;;;;4961472;28;20034;-64
2024/01/29 03:49:35;;;;;;;8.70;3.40;;;;;;;;;;4961142;28;20378;-64
2024/01/29 03:52:01;;;;;;;7.50;3.40;;;;;;;;;;4961951;28;20147;-64
2024/01/29 03:54:27;;;;;;;6.40;2.92;;;;;;;;;;4961420;28;20208;-64
2024/01/29 03:56:53;;;;;;;8.20;3.70;;;;;;;;;;4962149;28;20093;-64
2024/01/29 03:59:19;;;;;;;7.13;3.40;;;;;;;;;;4962335;28;20872;-63
2024/01/29 04:01:45;;;;;;;7.45;3.42;;;;;;;;;;4959775;28;20037;-64
2024/01/29 04:04:11;;;;;;;7.10;3.30;;;;;;;;;;4961386;28;21375;-64
2024/01/29 04:06:39;;;;;;;7.20;3.28;;;;;;;;;;4960616;28;20031;-64
2024/01/29 04:09:06;;;;;;;7.40;3.67;;;;;;;;;;4959483;28;20029;-64
2024/01/29 04:11:32;;;;;;;9.20;3.42;;;;;;;;;;4960933;28;20086;-64
2024/01/29 04:13:58;;;;;;;8.20;3.70;;;;;;;;;;4960288;28;20166;-64
2024/01/29 04:16:24;;;;;;;9.50;3.63;;;;;;;;;;4959828;28;20163;-64
2024/01/29 04:18:50;;;;;;;8.13;4.03;;;;;;;;;;4959906;28;20656;-64
2024/01/29 04:21:16;;;;;;;9.43;3.90;;;;;;;;;;4958268;28;20046;-64
2024/01/29 04:23:42;;;;;;;6.82;3.40;;;;;;;;;;4960897;28;20041;-64
2024/01/29 04:26:08;;;;;;;7.65;3.58;;;;;;;;;;4961902;28;20122;-64
2024/01/29 04:28:34;;;;;;;8.35;4.07;;;;;;;;;;4978859;28;20054;-64
2024/01/29 04:31:00;;;;;;;8.63;3.55;;;;;;;;;;4984495;28;20034;-64
2024/01/29 04:33:26;;;;;;;7.10;3.40;;;;;;;;;;4983203;28;20042;-64
2024/01/29 04:35:52;;;;;;;6.95;3.47;;;;;;;;;;4978167;28;20038;-63
2024/01/29 04:38:19;;;;;;;8.82;4.00;;;;;;;;;;4983636;28;20042;-63
2024/01/29 04:40:45;;;;;;;11.43;4.15;;;;;;;;;;4984060;28;20515;-64
2024/01/29 04:43:11;;;;;;;10.57;3.80;;;;;;;;;;4965376;28;20041;-64
2024/01/29 04:45:37;;;;;;;7.88;3.63;;;;;;;;;;4984072;28;20053;-64
2024/01/29 04:48:03;;;;;;;8.95;3.95;;;;;;;;;;4981389;28;20430;-64
2024/01/29 04:50:29;;;;;;;8.75;4.00;;;;;;;;;;4983742;28;20042;-64
2024/01/29 04:52:55;;;;;;;10.07;4.18;;;;;;;;;;4984186;28;20036;-64
2024/01/29 04:55:21;;;;;;;8.80;4.15;;;;;;;;;;4983816;28;20045;-64
2024/01/29 04:57:47;;;;;;;7.55;3.60;;;;;;;;;;4983461;28;20033;-64
2024/01/29 05:00:13;;;;;;;8.60;4.82;;;;;;;;;;4983540;28;20042;-64
2024/01/29 05:02:39;;;;;;;8.70;3.85;;;;;;;;;;4983537;28;20045;-64
2024/01/29 05:05:06;;;;;;;7.82;3.85;;;;;;;;;;4980146;28;20437;-64
2024/01/29 05:07:32;;;;;;;9.25;4.30;;;;;;;;;;4982504;28;20030;-64
2024/01/29 05:09:58;;;;;;;8.23;3.63;;;;;;;;;;4983261;28;20255;-64
2024/01/29 05:12:24;;;;;;;7.70;3.97;;;;;;;;;;4983677;28;20122;-64
2024/01/29 05:14:50;;;;;;;8.75;3.72;;;;;;;;;;4969897;28;20030;-64
2024/01/29 05:17:16;;;;;;;7.70;4.05;;;;;;;;;;4983500;28;20493;-64
2024/01/29 05:19:45;;;;;;;7.65;3.50;;;;;;;;;;4981611;28;21034;-64
2024/01/29 05:22:12;;;;;;;9.52;3.75;;;;;;;;;;4980326;28;20748;-64
2024/01/29 05:24:38;;;;;;;8.70;4.30;;;;;;;;;;4983629;28;20117;-63
2024/01/29 05:27:04;;;;;;;7.13;3.88;;;;;;;;;;4980653;28;20052;-63
2024/01/29 05:29:30;;;;;;;6.13;3.30;;;;;;;;;;4942829;28;20141;-64
2024/01/29 05:31:56;;;;;;;9.35;3.97;;;;;;;;;;4959323;28;20089;-63
2024/01/29 05:34:22;;;;;;;8.00;4.32;;;;;;;;;;4958502;28;20122;-64
2024/01/29 05:36:48;;;;;;;8.70;3.75;;;;;;;;;;4957897;28;20057;-64
2024/01/29 05:39:14;;;;;;;7.88;4.07;;;;;;;;;;4957524;28;20034;-63
2024/01/29 05:41:40;;;;;;;8.13;4.10;;;;;;;;;;4959131;28;20152;-63
2024/01/29 05:44:07;;;;;;;7.22;4.10;;;;;;;;;;4958711;28;20030;-64
2024/01/29 05:46:33;;;;;;;10.27;4.00;;;;;;;;;;4958188;28;20035;-64
2024/01/29 05:48:59;;;;;;;8.48;3.92;;;;;;;;;;4957420;28;20816;-64
2024/01/29 05:51:25;;;;;;;9.10;4.80;;;;;;;;;;4957346;28;20034;-64
2024/01/29 05:53:51;;;;;;;7.40;4.00;;;;;;;;;;4956570;28;20038;-64
2024/01/29 05:56:17;;;;;;;7.20;3.58;;;;;;;;;;4958256;28;21046;-64
2024/01/29 05:58:45;;;;;;;9.13;4.15;;;;;;;;;;4958064;28;20054;-64
2024/01/29 06:01:11;;;;;;;8.88;4.57;;;;;;;;;;4957413;28;20376;-64
2024/01/29 06:03:38;;;;;;;9.57;4.38;;;;;;;;;;4956468;28;20038;-64
2024/01/29 06:06:04;;;;;;;7.35;4.45;;;;;;;;;;4957027;28;20129;-64
2024/01/29 06:08:30;;;;;;;8.70;4.35;;;;;;;;;;4957331;28;20045;-64
2024/01/29 06:10:56;;;;;;;10.77;4.93;;;;;;;;;;4958213;28;20051;-64
2024/01/29 06:13:23;;;;;;;7.93;4.10;;;;;;;;;;4959174;28;20034;-64
2024/01/29 06:15:50;;;;;;;10.05;4.18;;;;;;;;;;4940708;28;20141;-64
2024/01/29 06:18:16;;;;;;;7.57;4.50;;;;;;;;;;4958567;28;20041;-64
2024/01/29 06:20:42;;;;;;;8.45;4.47;;;;;;;;;;4956317;28;20402;-64
2024/01/29 06:23:09;;;;;;;9.68;4.28;;;;;;;;;;4957598;28;20706;-64
2024/01/29 06:25:35;;;;;;;10.32;4.30;;;;;;;;;;4956196;28;20039;-64
2024/01/29 06:28:02;;;;;;;9.10;4.05;;;;;;;;;;4968532;28;20041;-64
2024/01/29 06:30:28;;;;;;;8.80;4.15;;;;;;;;;;4980910;28;20037;-64
2024/01/29 06:32:54;;;;;;;7.07;3.63;;;;;;;;;;4980468;28;20050;-64
2024/01/29 06:35:22;;;;;;;9.48;4.68;;;;;;;;;;4981369;28;20129;-64
2024/01/29 06:37:48;;;;;;;10.63;5.60;;;;;;;;;;4981411;28;20034;-64
2024/01/29 06:40:14;;;;;;;7.60;4.38;;;;;;;;;;4980997;28;20524;-64
2024/01/29 06:42:40;;;;;;;8.70;4.47;;;;;;;;;;4981393;28;20041;-65
2024/01/29 06:45:07;;;;;;;10.85;5.32;;;;;;;;;;4981534;28;20033;-64
2024/01/29 06:47:33;;;;;;;8.27;4.25;;;;;;;;;;4981364;28;20133;-64
2024/01/29 06:49:59;;;;;;;8.55;4.63;;;;;;;;;;4981169;28;20029;-64
2024/01/29 06:52:26;;;;;;;9.07;4.30;;;;;;;;;;4980092;28;20042;-65
2024/01/29 06:54:52;;;;;;;8.95;4.47;;;;;;;;;;4981285;28;20026;-65
2024/01/29 06:57:19;;;;;;;8.00;4.30;;;;;;;;;;4979097;28;20050;-64
2024/01/29 06:59:45;;;;;;;8.65;4.28;;;;;;;;;;4983931;28;20034;-65
2024/01/29 07:02:11;;;;;;;7.75;4.25;;;;;;;;;;4984041;28;20038;-65
2024/01/29 07:04:37;;;;;;;8.80;4.45;;;;;;;;;;4983424;28;20401;-65
2024/01/29 07:07:03;;;;;;;9.10;4.20;;;;;;;;;;4966278;28;20393;-65
2024/01/29 07:09:31;;;;;;;10.00;5.13;;;;;;;;;;4982706;28;20041;-65
2024/01/29 07:11:57;;;;;;;8.85;4.40;;;;;;;;;;4966218;28;20033;-65
2024/01/29 07:14:23;;;;;;;8.48;4.60;;;;;;;;;;4982510;28;20777;-65
2024/01/29 07:16:50;;;;;;;10.25;4.82;;;;;;;;;;4984169;28;20038;-64
2024/01/29 07:19:26;;;;;;;11.82;4.82;;;;;;;;;;4982960;28;20026;-64
2024/01/29 07:29:48;;;;;;;7.28;4.05;;;;;;;;;;4975027;28;20062;-65
2024/01/29 07:32:15;;;;;;;8.65;4.65;;;;;;;;;;3623254;23;20259;-65
2024/01/29 07:39:53;;;;;;;8.40;4.35;;;;;;;;;;5178762;23;1115933;-66
2024/01/29 07:42:19;;;;;;;10.32;5.07;;;;;;;;;;4976554;28;20026;-66
2024/01/29 07:44:46;;;;;;;11.18;4.95;;;;;;;;;;4974025;28;20033;-66
2024/01/29 07:47:12;;;;;;;9.27;5.05;;;;;;;;;;4951931;28;20065;-66
2024/01/29 07:49:38;;;;;;;12.30;6.03;;;;;;;;;;4969928;28;21932;-66
2024/01/29 07:52:04;;;;;;;8.10;4.60;;;;;;;;;;4971814;28;21262;-66
2024/01/29 07:54:30;;;;;;;10.63;5.38;;;;;;;;;;4972092;28;20109;-66
2024/01/29 07:56:57;;;;;;;8.10;4.70;;;;;;;;;;4971143;28;20739;-66
2024/01/29 07:59:23;;;;;;;10.70;5.78;;;;;;;;;;4959534;28;20078;-66
2024/01/29 08:01:49;;;;;;;12.15;5.50;;;;;;;;;;4954450;28;20022;-66
2024/01/29 08:04:15;;;;;;;8.65;4.55;;;;;;;;;;4970098;28;20026;-66
2024/01/29 08:06:41;;;;;;;9.23;4.85;;;;;;;;;;4971621;28;20024;-66
2024/01/29 08:09:07;;;;;;;8.18;4.50;;;;;;;;;;4968719;28;20026;-66
2024/01/29 08:11:33;;;;;;;10.18;5.35;;;;;;;;;;4970120;28;20048;-66
2024/01/29 08:13:59;;;;;;;9.25;5.15;;;;;;;;;;4970929;28;20108;-66
2024/01/29 08:16:26;;;;;;;10.63;5.32;;;;;;;;;;4970746;28;20031;-66
2024/01/29 08:18:52;;;;;;;8.02;5.07;;;;;;;;;;4968720;28;20922;-66
2024/01/29 08:21:18;;;;;;;9.90;5.47;;;;;;;;;;4952869;28;20049;-66
2024/01/29 08:23:44;;;;;;;9.95;5.45;;;;;;;;;;4968599;28;20026;-66
2024/01/29 08:26:10;;;;;;;9.63;5.50;;;;;;;;;;4968806;28;20053;-66
2024/01/29 08:28:36;;;;;;;10.65;5.38;;;;;;;;;;4968870;28;20021;-66
2024/01/29 08:31:03;;;;;;;10.82;5.90;;;;;;;;;;4969821;28;20026;-66
2024/01/29 08:33:29;;;;;;;12.30;5.82;;;;;;;;;;4970347;28;20034;-66
2024/01/29 08:35:55;;;;;;;9.20;5.28;;;;;;;;;;4971533;28;20593;-66
2024/01/29 08:38:22;;;;;;;9.98;5.50;;;;;;;;;;4969293;28;20029;-66
2024/01/29 08:40:49;;;;;;;11.68;5.28;;;;;;;;;;4969152;28;21709;-66
2024/01/29 08:43:15;;;;;;;9.15;5.28;;;;;;;;;;4967297;28;20117;-66
2024/01/29 08:45:41;;;;;;;10.13;5.47;;;;;;;;;;4969654;28;20499;-66
2024/01/29 08:48:08;;;;;;;11.65;4.95;;;;;;;;;;4968598;28;20111;-66
2024/01/29 08:50:37;;;;;;;9.85;5.60;;;;;;;;;;4969435;28;21088;-66
2024/01/29 08:53:03;;;;;;;12.25;6.00;;;;;;;;;;4970030;28;20117;-66
2024/01/29 08:55:30;;;;;;;9.55;5.72;;;;;;;;;;4970829;28;20132;-66
2024/01/29 08:57:57;;;;;;;8.95;5.13;;;;;;;;;;4969705;28;20030;-66
2024/01/29 09:00:23;;;;;;;9.98;5.20;;;;;;;;;;4953113;28;20879;-66
2024/01/29 09:02:49;;;;;;;10.20;5.65;;;;;;;;;;4969066;28;20736;-66
2024/01/29 09:05:16;;;;;;;9.43;5.07;;;;;;;;;;4969070;28;20055;-66
2024/01/29 09:07:42;;;;;;;9.95;5.78;;;;;;;;;;4971455;28;20041;-67
2024/01/29 09:10:08;;;;;;;11.70;5.97;;;;;;;;;;4969283;28;20058;-66
2024/01/29 09:12:34;;;;;;;10.18;5.88;;;;;;;;;;4969002;28;20030;-66
2024/01/29 09:15:04;;;;;;;9.57;5.65;;;;;;;;;;4968962;28;20124;-67
2024/01/29 09:17:30;;;;;;;10.00;6.07;;;;;;;;;;4968165;28;20018;-67
2024/01/29 09:19:56;;;;;;;12.13;6.55;;;;;;;;;;4968572;28;20026;-67
2024/01/29 09:22:22;;;;;;;10.88;6.00;;;;;;;;;;4968604;28;20654;-67
2024/01/29 09:24:48;;;;;;;13.05;5.82;;;;;;;;;;4969293;28;20496;-66
2024/01/29 09:27:14;;;;;;;11.85;5.85;;;;;;;;;;4950852;28;20846;-66
2024/01/29 09:29:40;;;;;;;12.38;6.82;;;;;;;;;;4968136;28;20520;-66
2024/01/29 09:32:07;;;;;;;10.57;6.20;;;;;;;;;;4968493;28;20042;-66
2024/01/29 09:34:33;;;;;;;11.10;6.50;;;;;;;;;;4969504;28;20723;-68
2024/01/29 09:36:59;;;;;;;10.82;6.68;;;;;;;;;;4951332;28;20026;-67
2024/01/29 09:39:25;;;;;;;11.23;5.88;;;;;;;;;;4968852;28;20038;-67
2024/01/29 09:41:52;;;;;;;11.65;6.38;;;;;;;;;;4968639;28;20022;-67
2024/01/29 09:44:18;;;;;;;14.38;7.40;;;;;;;;;;4969468;28;20030;-67
2024/01/29 09:46:45;;;;;;;13.57;5.97;;;;;;;;;;4967916;28;20417;-67
2024/01/29 09:49:11;;;;;;;11.48;6.18;;;;;;;;;;4969151;28;20030;-67
2024/01/29 09:51:38;;;;;;;10.82;6.43;;;;;;;;;;4968939;28;20038;-67
2024/01/29 09:54:05;;;;;;;12.52;7.40;;;;;;;;;;4969382;28;20549;-67
2024/01/29 09:56:31;;;;;;;11.20;7.00;;;;;;;;;;4952307;28;20030;-67
2024/01/29 09:58:57;;;;;;;13.13;6.88;;;;;;;;;;4968562;28;20036;-67
2024/01/29 10:01:24;;;;;;;12.90;6.80;;;;;;;;;;4969350;28;20068;-67
2024/01/29 10:03:50;;;;;;;11.55;6.80;;;;;;;;;;4967882;28;20030;-67
2024/01/29 10:06:16;;;;;;;13.55;7.10;;;;;;;;;;4957300;28;20037;-67
2024/01/29 10:08:43;;;;;;;9.88;6.03;;;;;;;;;;4964178;28;20042;-67
2024/01/29 10:11:09;;;;;;;12.38;6.53;;;;;;;;;;4965078;28;20528;-67
2024/01/29 10:13:35;;;;;;;13.63;6.90;;;;;;;;;;4966580;28;20050;-67
2024/01/29 10:16:01;;;;;;;9.45;6.35;;;;;;;;;;4967470;28;20027;-67
2024/01/29 10:18:30;;;;;;;13.65;7.35;;;;;;;;;;4967442;28;20033;-67
2024/01/29 10:21:02;;;;;;;14.07;6.43;;;;;;;;;;4968427;28;20046;-67
2024/01/29 10:23:28;;;;;;;11.40;6.93;;;;;;;;;;4967340;28;20145;-67
2024/01/29 10:25:55;;;;;;;13.25;7.45;;;;;;;;;;4961583;28;20034;-67
2024/01/29 10:28:23;;;;;;;11.50;7.25;;;;;;;;;;4963487;28;21278;-67
2024/01/29 10:30:50;;;;;;;13.48;6.95;;;;;;;;;;4963413;28;20100;-67
2024/01/29 10:33:16;;;;;;;11.55;7.22;;;;;;;;;;4966001;28;20045;-67
2024/01/29 10:35:42;;;;;;;12.43;6.75;;;;;;;;;;4969213;28;20036;-67
2024/01/29 10:38:08;;;;;;;10.95;7.28;;;;;;;;;;4953927;28;20096;-66
2024/01/29 10:40:35;;;;;;;11.63;7.25;;;;;;;;;;4951439;28;20831;-67
2024/01/29 10:43:02;;;;;;;12.40;6.93;;;;;;;;;;4968067;28;20034;-67
2024/01/29 10:45:28;;;;;;;13.00;6.90;;;;;;;;;;4968841;28;20535;-67
2024/01/29 10:48:06;;;;;;;14.85;6.88;;;;;;;;;;4968975;28;20559;-67
2024/01/29 10:50:32;;;;;;;11.27;6.80;;;;;;;;;;4953678;28;20036;-67
2024/01/29 10:53:01;;;;;;;12.07;7.55;;;;;;;;;;4969208;28;22229;-67
2024/01/29 10:55:30;;;;;;;10.95;6.55;;;;;;;;;;4969831;28;20109;-67
2024/01/29 10:58:01;;;;;;;12.02;7.43;;;;;;;;;;4969701;28;20038;-67
2024/01/29 11:00:35;;;;;;;10.73;7.15;;;;;;;;;;4971587;28;20073;-67
2024/01/29 11:03:02;;;;;;;13.90;8.30;;;;;;;;;;4954982;28;20889;-67
2024/01/29 11:05:28;;;;;;;14.70;7.80;;;;;;;;;;4959370;28;20115;-67
2024/01/29 11:07:56;;;;;;;13.48;8.13;;;;;;;;;;4970713;28;20152;-67
2024/01/29 11:10:23;;;;;;;16.13;7.30;;;;;;;;;;4958295;28;20666;-67
2024/01/29 11:12:51;;;;;;;12.90;8.15;;;;;;;;;;4967682;28;20038;-66
2024/01/29 11:15:17;;;;;;;14.68;8.38;;;;;;;;;;4968954;28;20480;-67
2024/01/29 11:17:43;;;;;;;10.93;7.28;;;;;;;;;;4969726;28;20041;-67
2024/01/29 11:20:11;;;;;;;12.52;7.93;;;;;;;;;;4969289;28;20147;-67
2024/01/29 11:22:37;;;;;;;11.40;8.00;;;;;;;;;;4968814;28;20042;-67
2024/01/29 11:25:14;;;;;;;13.10;8.05;;;;;;;;;;4968423;28;20030;-67
2024/01/29 11:27:40;;;;;;;13.27;8.02;;;;;;;;;;4970267;28;20077;-67
2024/01/29 11:30:19;;;;;;;14.18;7.55;;;;;;;;;;4969945;28;20093;-66
2024/01/29 11:32:49;;;;;;;16.92;8.18;;;;;;;;;;4970650;28;20065;-67
2024/01/29 11:35:17;;;;;;;15.40;9.15;;;;;;;;;;4970985;28;20030;-67
2024/01/29 11:37:43;;;;;;;13.75;7.78;;;;;;;;;;4970326;28;20026;-67
2024/01/29 11:40:28;;;;;;;13.68;7.28;;;;;;;;;;4953798;28;20128;-67
2024/01/29 11:42:54;;;;;;;15.27;8.50;;;;;;;;;;4968564;28;20503;-67
2024/01/29 11:45:21;;;;;;;17.13;9.00;;;;;;;;;;4966004;28;20087;-67
2024/01/29 11:47:47;;;;;;;16.50;9.35;;;;;;;;;;4964513;28;20631;-66
2024/01/29 11:50:13;;;;;;;14.95;9.57;;;;;;;;;;4966081;28;21175;-66
2024/01/29 11:52:39;;;;;;;15.70;8.93;;;;;;;;;;4965326;28;20069;-67
2024/01/29 11:55:06;;;;;;;19.42;10.48;;;;;;;;;;4966331;28;20038;-66
2024/01/29 11:57:32;;;;;;;22.10;10.43;;;;;;;;;;4964869;28;20038;-66
2024/01/29 12:00:02;;;;;;;21.77;10.52;;;;;;;;;;4966695;28;20028;-66
2024/01/29 12:02:30;;;;;;;20.55;10.70;;;;;;;;;;4965890;28;20042;-67
2024/01/29 12:04:56;;;;;;;28.38;11.60;;;;;;;;;;4949426;28;20035;-67
2024/01/29 12:07:22;;;;;;;25.00;11.38;;;;;;;;;;4964796;28;21372;-66
2024/01/29 12:09:49;;;;;;;30.52;11.73;;;;;;;;;;4965456;28;20061;-66
2024/01/29 12:12:15;;;;;;;29.65;12.45;;;;;;;;;;4964272;28;20624;-66
2024/01/29 12:14:41;;;;;;;23.05;11.32;;;;;;;;;;4965171;28;20030;-66
2024/01/29 12:17:09;;;;;;;23.73;11.63;;;;;;;;;;4965484;28;20034;-67
2024/01/29 12:19:35;;;;;;;26.63;12.02;;;;;;;;;;4966284;28;21475;-66
2024/01/29 12:22:01;;;;;;;24.40;11.20;;;;;;;;;;4963495;28;20798;-66
2024/01/29 12:24:27;;;;;;;20.60;11.02;;;;;;;;;;4964232;28;20026;-66
2024/01/29 12:26:53;;;;;;;26.90;12.15;;;;;;;;;;4963242;28;20572;-66
2024/01/29 12:29:20;;;;;;;25.92;11.27;;;;;;;;;;4964476;28;20115;-66
2024/01/29 12:31:46;;;;;;;23.25;11.52;;;;;;;;;;4964006;28;20043;-67
2024/01/29 12:34:20;;;;;;;28.63;12.68;;;;;;;;;;4965150;28;20049;-67
2024/01/29 12:36:45;;;;;;;;;;;;;;;;;;4965683;28;20148;-67
2024/01/29 12:39:12;;;;;;;25.92;12.75;;;;;;;;;;4964923;28;19921;-67
2024/01/29 12:41:38;;;;;;;29.85;13.13;;;;;;;;;;4963587;28;20790;-67
2024/01/29 12:44:10;;;;;;;28.45;13.50;;;;;;;;;;4964987;28;20129;-67
2024/01/29 12:46:36;;;;;;;30.27;13.43;;;;;;;;;;4947822;28;20501;-66
2024/01/29 12:49:05;;;;;;;29.08;12.38;;;;;;;;;;4965596;28;20040;-67
2024/01/29 12:51:31;;;;;;;25.75;12.02;;;;;;;;;;4965478;28;20112;-67
2024/01/29 12:53:57;;;;;;;28.67;13.40;;;;;;;;;;4968349;28;20038;-67
2024/01/29 12:56:25;;;;;;;24.55;12.75;;;;;;;;;;4968052;28;20023;-67
2024/01/29 12:58:51;;;;;;;24.77;12.55;;;;;;;;;;4969225;28;20042;-67
2024/01/29 13:01:18;;;;;;;22.70;11.88;;;;;;;;;;4969854;28;20058;-66
2024/01/29 13:03:44;;;;;;;28.15;13.27;;;;;;;;;;4969688;28;20113;-66
2024/01/29 13:06:11;;;;;;;24.45;12.45;;;;;;;;;;4969705;28;20026;-66
2024/01/29 13:08:37;;;;;;;27.17;13.23;;;;;;;;;;4969175;28;20041;-66
2024/01/29 13:11:03;;;;;;;27.98;12.48;;;;;;;;;;4969079;28;20096;-66
2024/01/29 13:13:29;;;;;;;25.70;13.85;;;;;;;;;;4968727;28;20041;-66
2024/01/29 13:15:55;;;;;;;29.58;13.27;;;;;;;;;;4966981;28;20171;-66
2024/01/29 13:18:22;;;;;;;37.60;14.40;;;;;;;;;;4968841;28;20038;-66
2024/01/29 13:20:48;;;;;;;36.38;14.90;;;;;;;;;;4968817;28;20033;-66
2024/01/29 13:23:14;;;;;;;32.42;14.63;;;;;;;;;;4969199;28;20033;-66
2024/01/29 13:25:40;;;;;;;33.35;14.65;;;;;;;;;;4967647;28;21611;-66
2024/01/29 13:28:09;;;;;;;32.92;15.63;;;;;;;;;;4968660;28;20065;-67
2024/01/29 13:30:36;;;;;;;34.80;15.25;;;;;;;;;;4955347;28;21031;-67
2024/01/29 13:33:02;;;;;;;33.50;14.82;;;;;;;;;;4968994;28;21063;-67
2024/01/29 13:35:28;;;;;;;27.83;13.95;;;;;;;;;;4968697;28;20034;-67
2024/01/29 13:37:54;;;;;;;31.08;14.32;;;;;;;;;;4968454;28;20026;-67
2024/01/29 13:40:20;;;;;;;31.38;14.15;;;;;;;;;;4968042;28;20061;-67
2024/01/29 13:42:48;;;;;;;32.85;14.88;;;;;;;;;;4966563;28;20038;-67
2024/01/29 13:45:14;;;;;;;31.75;14.23;;;;;;;;;;4968177;28;20037;-67
2024/01/29 13:47:40;;;;;;;38.55;14.68;;;;;;;;;;4969570;28;20050;-67
2024/01/29 13:50:06;;;;;;;36.60;14.25;;;;;;;;;;4969741;28;20041;-67
2024/01/29 13:52:33;;;;;;;26.80;12.65;;;;;;;;;;4969087;28;20464;-67
2024/01/29 13:54:59;;;;;;;32.20;14.35;;;;;;;;;;4969080;28;20217;-67
2024/01/29 13:57:25;;;;;;;31.10;14.30;;;;;;;;;;4967604;28;20034;-67
2024/01/29 13:59:51;;;;;;;27.52;12.98;;;;;;;;;;4968688;28;20081;-67
2024/01/29 14:02:17;;;;;;;31.00;14.55;;;;;;;;;;4968732;28;20037;-67
2024/01/29 14:04:43;;;;;;;31.75;15.07;;;;;;;;;;4969239;28;20050;-67
2024/01/29 14:07:10;;;;;;;29.02;14.00;;;;;;;;;;4966869;28;20038;-67
2024/01/29 14:09:36;;;;;;;31.80;14.38;;;;;;;;;;4969178;28;20095;-67
2024/01/29 14:12:02;;;;;;;26.48;13.23;;;;;;;;;;4966614;28;21006;-67
2024/01/29 14:14:29;;;;;;;27.50;13.65;;;;;;;;;;4968161;28;20037;-67
2024/01/29 14:16:55;;;;;;;26.30;13.52;;;;;;;;;;4967156;28;20034;-66
2024/01/29 14:19:21;;;;;;;23.88;13.60;;;;;;;;;;4967807;28;20027;-66
2024/01/29 14:21:47;;;;;;;23.77;12.40;;;;;;;;;;4958851;28;20133;-66
2024/01/29 14:24:13;;;;;;;25.95;13.68;;;;;;;;;;4969720;28;20073;-66
2024/01/29 14:26:41;;;;;;;23.50;13.50;;;;;;;;;;4968117;28;20085;-67
2024/01/29 14:29:07;;;;;;;21.35;12.23;;;;;;;;;;4969476;28;20084;-67
2024/01/29 14:31:33;;;;;;;27.67;12.90;;;;;;;;;;4967327;28;20768;-66
2024/01/29 14:33:59;;;;;;;26.60;12.85;;;;;;;;;;4969218;28;21110;-67
2024/01/29 14:36:25;;;;;;;22.25;11.65;;;;;;;;;;4956754;28;20038;-67
2024/01/29 14:38:56;;;;;;;23.67;11.93;;;;;;;;;;4951256;28;20050;-66
2024/01/29 14:41:23;;;;;;;23.48;12.60;;;;;;;;;;4970235;28;20037;-66